Avenue, Maryland
Current Conditions -  °F | °C
As of 1:21 PM on Monday 22 Dec 2014 (Local Time) from K2W6 Reporting Station
Overcast Overcast  
Wind Chill: -1°   Ceiling: 700
Heat Index:   Visibility: NA
Dew Point:   Wind: 6mph
Humidity: 87%   Direction: 360°N
Pressure: 30.2"   Gusts: NA
Location:  38.26°N, 76.77°W
Report Text: K2W6 221821Z AUTO 36005KT BKN007 OVC013 02/00 A3020 RMK AO1
Loading
Personal Weather Stations






























Interactive Weather Map New forecast layout! Learn more

10-Day Weather Forecast

Advertisements
Track Severe Weather on mobile